CheckWX is a tool to help pilots better visualize weather data.  It is not intended as a substitute for an official pre-flight weather briefing.

14:15:17 UTC

KMYZ METAR
Marysville Municipal Airport
Marysville, Kansas, USA
Current

20 mins ago

KMYZ 221355Z AUTO 32014KT 10SM OVC015 13/11 A2994 RMK AO2 LTG DSNT NE
Observed
Apr-22 @ 13:55 UTC
Wind
  • 320° at 14 KTS
Visibility
10 SM
Flight Rules
MVFR
Cloud Levels
  • Overcast at 1,500' AGL
Temperature
13°C / 55°F
Dewpoint
11°C / 52°F
Humidity
88%
Altimeter
29.94" Hg
Pressure
1013.92 hPa
Previous

40 mins ago

KMYZ 221335Z AUTO 33011KT 10SM OVC017 14/12 A2993 RMK AO2 LTG DSNT NE
Observed
Apr-22 @ 13:35 UTC
Wind
  • 330° at 11 KTS
Visibility
10 SM
Flight Rules
MVFR
Cloud Levels
  • Overcast at 1,700' AGL
Temperature
14°C / 57°F
Dewpoint
12°C / 54°F
Humidity
88%
Altimeter
29.93" Hg
Pressure
1013.52 hPa
Previous

60 mins ago

KMYZ 221315Z AUTO 32012G16KT 10SM OVC017 14/12 A2993 RMK AO2
Observed
Apr-22 @ 13:15 UTC
Wind
  • 320° at 12 KTS
  • Gusting to 16 KTS
Visibility
10 SM
Flight Rules
MVFR
Cloud Levels
  • Overcast at 1,700' AGL
Temperature
14°C / 57°F
Dewpoint
12°C / 54°F
Humidity
88%
Altimeter
29.93" Hg
Pressure
1013.52 hPa